Satellite Precipitation Estimates (TXUS20 KWBC)
Issued by NWS

Home | Current Version | Previous Version | Text Only | Print | Product List | Glossary On
Versions: 1
000
SPTD31 TTPP 131243 CCA
SPECI
TTCP 131236Z 10016KT 9999 2500E SHRA FEW012CB BKN016 25/23 Q1016
NOSIG
RMK CB SE, TCU NE SHWRS N/E/=



USA.gov is the U.S. government's official web portal to all federal, state and local government web resources and services.